createdAt,value
2023-02-22T00:00:19.473Z,20.20
2023-02-22T00:02:46.622Z,20.20
2023-02-22T00:05:16.642Z,20.18
2023-02-22T00:07:44.610Z,20.18
2023-02-22T00:10:13.412Z,20.18
2023-02-22T00:12:42.545Z,20.18
2023-02-22T00:15:09.261Z,20.17
2023-02-22T00:17:35.747Z,20.17
2023-02-22T00:20:05.525Z,20.16
2023-02-22T00:22:31.853Z,20.16
2023-02-22T00:24:58.188Z,20.15
2023-02-22T00:27:24.513Z,20.15
2023-02-22T00:29:50.864Z,20.14
2023-02-22T00:32:17.318Z,20.14
2023-02-22T00:34:43.703Z,20.13
2023-02-22T00:37:10.398Z,20.13
2023-02-22T00:39:36.737Z,20.12
2023-02-22T00:42:03.931Z,20.12
2023-02-22T00:44:30.316Z,20.11
2023-02-22T00:46:56.670Z,20.09
2023-02-22T00:49:23.044Z,20.09
2023-02-22T00:51:49.671Z,20.10
2023-02-22T00:54:18.421Z,20.09
2023-02-22T00:56:44.775Z,20.09
2023-02-22T00:59:11.156Z,20.07
2023-02-22T01:01:37.515Z,20.06
2023-02-22T01:04:03.991Z,20.07
2023-02-22T01:06:31.329Z,20.07
2023-02-22T01:08:58.136Z,20.06
2023-02-22T01:11:24.472Z,20.06
2023-02-22T01:13:54.080Z,20.05
2023-02-22T01:16:21.081Z,20.04
2023-02-22T01:18:47.435Z,20.03
2023-02-22T01:21:14.010Z,20.02
2023-02-22T01:23:41.139Z,20.02
2023-02-22T01:26:07.485Z,20.02
2023-02-22T01:28:33.941Z,20.00
2023-02-22T01:31:02.983Z,20.00
2023-02-22T01:33:29.354Z,20.00
2023-02-22T01:35:55.689Z,19.99
2023-02-22T01:38:22.049Z,20.00
2023-02-22T01:40:48.804Z,19.99
2023-02-22T01:43:16.822Z,20.00
2023-02-22T01:45:47.949Z,19.99
2023-02-22T01:48:16.120Z,19.97
2023-02-22T01:50:44.267Z,19.97
2023-02-22T01:53:13.168Z,19.97
2023-02-22T01:55:39.537Z,19.95
2023-02-22T01:58:05.923Z,19.96
2023-02-22T02:00:32.299Z,19.96
2023-02-22T02:03:00.005Z,19.94
2023-02-22T02:05:26.875Z,19.95
2023-02-22T02:07:53.329Z,19.95
2023-02-22T02:10:21.364Z,19.94
2023-02-22T02:12:48.763Z,19.94
2023-02-22T02:15:25.504Z,19.95
2023-02-22T02:17:52.198Z,19.95
2023-02-22T02:20:30.772Z,19.97
2023-02-22T02:23:16.001Z,19.98
2023-02-22T02:26:03.900Z,20.00
2023-02-22T02:28:48.835Z,20.00
2023-02-22T02:31:26.070Z,20.02
2023-02-22T02:34:02.933Z,20.01
2023-02-22T02:36:49.447Z,20.02
2023-02-22T02:39:20.741Z,20.02
2023-02-22T02:41:47.801Z,20.02
2023-02-22T02:44:28.455Z,20.02
2023-02-22T02:47:08.008Z,20.02
2023-02-22T02:49:35.810Z,20.01
2023-02-22T02:52:02.142Z,20.01
2023-02-22T02:54:28.498Z,20.00
2023-02-22T02:56:56.024Z,19.99
2023-02-22T02:59:26.313Z,19.99
2023-02-22T03:01:57.370Z,19.98
2023-02-22T03:04:23.654Z,19.97
2023-02-22T03:06:52.338Z,19.97
2023-02-22T03:09:35.446Z,19.98
2023-02-22T03:12:11.740Z,19.97
2023-02-22T03:14:38.143Z,19.96
2023-02-22T03:17:05.959Z,19.95
2023-02-22T03:19:35.289Z,19.94
2023-02-22T03:22:02.799Z,19.94
2023-02-22T03:24:52.963Z,19.95
2023-02-22T03:27:27.968Z,19.93
2023-02-22T03:30:00.365Z,19.92
2023-02-22T03:32:31.470Z,19.93
2023-02-22T03:34:59.284Z,19.92
2023-02-22T03:37:29.114Z,19.92
2023-02-22T03:39:55.477Z,19.93
2023-02-22T03:42:23.597Z,19.95
2023-02-22T03:44:50.004Z,19.96
2023-02-22T03:47:17.520Z,19.98
2023-02-22T03:49:50.048Z,19.99
2023-02-22T03:52:17.269Z,20.00
2023-02-22T03:54:43.740Z,20.01
2023-02-22T03:57:17.957Z,20.01
2023-02-22T03:59:44.818Z,20.02
2023-02-22T04:02:11.679Z,20.02
2023-02-22T04:04:38.290Z,20.03
2023-02-22T04:07:05.872Z,20.02
2023-02-22T04:09:32.763Z,20.04
2023-02-22T04:11:59.123Z,20.02
2023-02-22T04:14:28.167Z,20.05
2023-02-22T04:16:56.742Z,20.05
2023-02-22T04:19:23.124Z,20.06
2023-02-22T04:21:51.029Z,20.07
2023-02-22T04:24:21.860Z,20.08
2023-02-22T04:26:48.396Z,20.09
2023-02-22T04:29:15.355Z,20.09
2023-02-22T04:31:44.228Z,20.09
2023-02-22T04:34:11.129Z,20.08
2023-02-22T04:36:42.209Z,20.08
2023-02-22T04:39:08.825Z,20.08
2023-02-22T04:41:35.274Z,20.11
2023-02-22T04:44:01.671Z,20.13
2023-02-22T04:46:28.595Z,20.13
2023-02-22T04:48:55.461Z,20.13
2023-02-22T04:51:24.727Z,20.11
2023-02-22T04:53:56.529Z,20.11
2023-02-22T04:56:24.071Z,20.16
2023-02-22T04:58:50.423Z,20.17
2023-02-22T05:01:17.064Z,20.19
2023-02-22T05:03:46.005Z,20.19
2023-02-22T05:06:12.661Z,20.20
2023-02-22T05:08:38.996Z,20.21
2023-02-22T05:11:05.431Z,20.22
2023-02-22T05:13:31.824Z,20.21
2023-02-22T05:15:58.208Z,20.21
2023-02-22T05:18:24.789Z,20.22
2023-02-22T05:20:51.144Z,20.22
2023-02-22T05:23:17.529Z,20.26
2023-02-22T05:25:44.437Z,20.26
2023-02-22T05:28:11.470Z,20.24
2023-02-22T05:30:39.752Z,20.32
2023-02-22T05:33:09.387Z,20.33
2023-02-22T05:35:37.030Z,20.42
2023-02-22T05:38:03.739Z,20.49
2023-02-22T05:40:30.081Z,20.54
2023-02-22T05:42:56.923Z,20.60
2023-02-22T05:45:24.851Z,20.66
2023-02-22T05:47:51.257Z,20.65
2023-02-22T05:50:17.620Z,20.52
2023-02-22T05:52:44.093Z,20.42
2023-02-22T05:55:10.454Z,20.45
2023-02-22T05:57:36.770Z,20.44
2023-02-22T06:00:04.370Z,20.45
2023-02-22T06:02:39.222Z,20.45
2023-02-22T06:05:05.627Z,20.45
2023-02-22T06:07:31.975Z,20.44
2023-02-22T06:09:58.344Z,20.44
2023-02-22T06:12:24.666Z,20.44
2023-02-22T06:14:51.044Z,20.44
2023-02-22T06:17:18.870Z,20.44
2023-02-22T06:19:46.064Z,20.43
2023-02-22T06:22:16.149Z,20.43
2023-02-22T06:24:42.518Z,20.43
2023-02-22T06:27:08.839Z,20.42
2023-02-22T06:29:35.396Z,20.40
2023-02-22T06:32:01.883Z,20.40
2023-02-22T06:34:28.307Z,20.39
2023-02-22T06:36:54.620Z,20.38
2023-02-22T06:39:20.952Z,20.38
2023-02-22T06:41:47.336Z,20.38
2023-02-22T06:44:14.027Z,20.38
2023-02-22T06:46:40.484Z,20.36
2023-02-22T06:49:06.808Z,20.37
2023-02-22T06:51:36.324Z,20.38
2023-02-22T06:54:02.635Z,20.38
2023-02-22T06:56:29.034Z,20.38
2023-02-22T06:58:55.343Z,20.38
2023-02-22T07:01:21.777Z,20.38
2023-02-22T07:03:48.894Z,20.38
2023-02-22T07:06:15.249Z,20.37
2023-02-22T07:08:41.564Z,20.37
2023-02-22T07:11:07.884Z,20.36
2023-02-22T07:13:34.243Z,20.35
2023-02-22T07:16:00.662Z,20.35
2023-02-22T07:18:27.017Z,20.34
2023-02-22T07:20:54.321Z,20.33
2023-02-22T07:23:20.669Z,20.34
2023-02-22T07:25:47.005Z,20.33
2023-02-22T07:28:13.344Z,20.34
2023-02-22T07:30:39.720Z,20.35
2023-02-22T07:33:07.112Z,20.34
2023-02-22T07:35:36.566Z,20.34
2023-02-22T07:38:03.368Z,20.35
2023-02-22T07:40:29.714Z,20.35
2023-02-22T07:42:59.569Z,20.34
2023-02-22T07:45:29.373Z,20.35
2023-02-22T07:47:55.750Z,20.35
2023-02-22T07:50:22.373Z,20.33
2023-02-22T07:52:49.067Z,20.33
2023-02-22T07:55:16.835Z,20.33
2023-02-22T07:57:43.948Z,20.32
2023-02-22T08:00:10.579Z,20.33
2023-02-22T08:02:38.902Z,20.33
2023-02-22T08:05:05.874Z,20.33
2023-02-22T08:07:32.479Z,20.35
2023-02-22T08:09:58.800Z,20.35
2023-02-22T08:12:25.165Z,20.35
2023-02-22T08:14:51.494Z,20.36
2023-02-22T08:17:17.840Z,20.35
2023-02-22T08:19:44.313Z,20.35
2023-02-22T08:22:10.668Z,20.35
2023-02-22T08:24:36.976Z,20.34
2023-02-22T08:27:03.305Z,20.32
2023-02-22T08:29:33.448Z,20.26
2023-02-22T08:32:00.371Z,20.26
2023-02-22T08:34:26.956Z,20.27
2023-02-22T08:36:53.353Z,20.27
2023-02-22T08:39:19.839Z,20.26
2023-02-22T08:41:46.221Z,20.28
2023-02-22T08:44:12.549Z,20.29
2023-02-22T08:46:39.218Z,20.28
2023-02-22T08:49:07.184Z,20.29
2023-02-22T08:51:36.405Z,20.30
2023-02-22T08:54:03.442Z,20.30
2023-02-22T08:56:30.252Z,20.30
2023-02-22T08:58:57.437Z,20.30
2023-02-22T09:01:32.779Z,20.38
2023-02-22T09:03:59.614Z,20.38
2023-02-22T09:06:25.959Z,20.38
2023-02-22T09:08:52.326Z,20.36
2023-02-22T09:11:18.802Z,20.37
2023-02-22T09:13:45.211Z,20.36
2023-02-22T09:16:11.570Z,20.29
2023-02-22T09:18:44.022Z,20.34
2023-02-22T09:21:11.755Z,20.38
2023-02-22T09:23:38.080Z,20.39
2023-02-22T09:26:04.435Z,20.39
2023-02-22T09:28:30.750Z,20.41
2023-02-22T09:30:57.084Z,20.42
2023-02-22T09:33:23.619Z,20.43
2023-02-22T09:35:50.186Z,20.42
2023-02-22T09:38:17.476Z,20.42
2023-02-22T09:40:45.876Z,20.41
2023-02-22T09:43:18.211Z,20.42
2023-02-22T09:46:02.708Z,20.40
2023-02-22T09:48:31.775Z,20.40
2023-02-22T09:50:58.544Z,20.39
2023-02-22T09:53:31.513Z,20.40
2023-02-22T09:55:59.453Z,20.41
2023-02-22T09:58:34.349Z,20.41
2023-02-22T10:01:18.853Z,20.41
2023-02-22T10:03:49.573Z,20.42
2023-02-22T10:06:17.401Z,20.43
2023-02-22T10:08:44.950Z,20.45
2023-02-22T10:11:15.991Z,20.45
2023-02-22T10:13:51.142Z,20.46
2023-02-22T10:16:21.006Z,20.45
2023-02-22T10:19:08.158Z,20.45
2023-02-22T10:21:47.393Z,20.43
2023-02-22T10:24:24.809Z,20.45
2023-02-22T10:26:51.174Z,20.44
2023-02-22T10:29:19.176Z,20.43
2023-02-22T10:31:46.332Z,20.37
2023-02-22T10:34:14.068Z,20.36
2023-02-22T10:36:42.362Z,20.36
2023-02-22T10:39:14.942Z,20.36
2023-02-22T10:41:43.341Z,20.43
2023-02-22T10:44:10.835Z,20.45
2023-02-22T10:46:37.164Z,20.47
2023-02-22T10:49:04.871Z,20.47
2023-02-22T10:51:34.633Z,20.47
2023-02-22T10:54:12.832Z,20.48
2023-02-22T10:56:48.961Z,20.43
2023-02-22T10:59:26.983Z,20.45
2023-02-22T11:01:53.495Z,20.42
2023-02-22T11:04:21.598Z,20.41
2023-02-22T11:06:49.057Z,20.39
2023-02-22T11:09:17.839Z,20.38
2023-02-22T11:11:45.917Z,20.37
2023-02-22T11:14:13.239Z,20.38
2023-02-22T11:16:41.801Z,20.38
2023-02-22T11:19:11.336Z,20.36
2023-02-22T11:21:41.030Z,20.37
2023-02-22T11:24:10.963Z,20.36
2023-02-22T11:26:49.167Z,20.35
2023-02-22T11:29:21.782Z,20.35
2023-02-22T11:31:49.250Z,20.34
2023-02-22T11:34:44.687Z,20.34
2023-02-22T11:37:29.718Z,20.32
2023-02-22T11:40:06.311Z,20.32
2023-02-22T11:42:32.649Z,20.31
2023-02-22T11:45:27.306Z,20.30
2023-02-22T11:47:57.005Z,20.31
2023-02-22T11:50:30.679Z,20.32
2023-02-22T11:53:17.201Z,20.30
2023-02-22T11:55:50.644Z,20.30
2023-02-22T11:58:24.275Z,20.29
2023-02-22T12:00:58.396Z,20.29
2023-02-22T12:03:51.285Z,20.27
2023-02-22T12:06:32.806Z,20.24
2023-02-22T12:09:02.115Z,20.24
2023-02-22T12:11:36.867Z,20.23
2023-02-22T12:14:10.227Z,20.22
2023-02-22T12:16:42.585Z,20.20
2023-02-22T12:19:27.728Z,20.20
2023-02-22T12:21:54.950Z,20.19
2023-02-22T12:24:22.525Z,20.06
2023-02-22T12:27:01.152Z,20.04
2023-02-22T12:29:32.953Z,20.05
2023-02-22T12:32:04.813Z,19.99
2023-02-22T12:34:38.466Z,19.99
2023-02-22T12:37:17.080Z,19.96
2023-02-22T12:39:53.251Z,19.93
2023-02-22T12:42:21.315Z,19.91
2023-02-22T12:44:51.011Z,20.04
2023-02-22T12:47:18.946Z,19.12
2023-02-22T12:49:49.300Z,18.73
2023-02-22T12:52:34.492Z,18.81
2023-02-22T12:55:01.961Z,18.44
2023-02-22T12:57:36.032Z,18.76
2023-02-22T13:00:04.368Z,18.94
2023-02-22T13:02:32.369Z,19.07
2023-02-22T13:04:58.752Z,19.01
2023-02-22T13:07:32.365Z,18.92
2023-02-22T13:10:18.757Z,18.89
2023-02-22T13:12:49.382Z,19.00
2023-02-22T13:15:22.688Z,19.00
2023-02-22T13:17:56.214Z,18.87
2023-02-22T13:20:23.956Z,18.83
2023-02-22T13:22:50.210Z,18.95
2023-02-22T13:25:19.577Z,19.03
2023-02-22T13:27:54.492Z,18.93
2023-02-22T13:30:23.195Z,18.91
2023-02-22T13:33:08.132Z,18.88
2023-02-22T13:35:38.586Z,18.79
2023-02-22T13:38:04.851Z,18.87
2023-02-22T13:40:34.213Z,19.37
2023-02-22T13:43:19.287Z,19.60
2023-02-22T13:45:52.465Z,19.69
2023-02-22T13:48:37.574Z,19.74
2023-02-22T13:51:06.603Z,19.79
2023-02-22T13:53:39.169Z,19.80
2023-02-22T13:56:05.496Z,19.82
2023-02-22T13:58:31.820Z,19.84
2023-02-22T14:00:58.540Z,19.86
2023-02-22T14:03:36.052Z,19.87
2023-02-22T14:06:03.309Z,19.90
2023-02-22T14:08:33.688Z,19.91
2023-02-22T14:11:15.214Z,19.92
2023-02-22T14:13:55.168Z,19.93
2023-02-22T14:16:22.451Z,19.92
2023-02-22T14:18:49.389Z,19.94
2023-02-22T14:21:20.354Z,19.97
2023-02-22T14:23:50.467Z,19.96
2023-02-22T14:26:25.761Z,19.94
2023-02-22T14:28:52.052Z,19.94
2023-02-22T14:31:35.627Z,19.97
2023-02-22T14:34:04.798Z,19.97
2023-02-22T14:36:53.069Z,19.97
2023-02-22T14:39:20.533Z,19.99
2023-02-22T14:41:49.056Z,19.94
2023-02-22T14:44:16.437Z,19.95
2023-02-22T14:46:42.803Z,19.97
2023-02-22T14:49:10.072Z,19.98
2023-02-22T14:51:42.775Z,19.98
2023-02-22T14:54:20.461Z,19.97
2023-02-22T14:57:14.583Z,20.00
2023-02-22T14:59:52.402Z,19.99
2023-02-22T15:02:18.781Z,20.03
2023-02-22T15:04:54.703Z,20.04
2023-02-22T15:07:21.032Z,20.04
2023-02-22T15:09:48.344Z,20.02
2023-02-22T15:12:20.999Z,19.96
2023-02-22T15:14:48.424Z,19.92
2023-02-22T15:17:19.103Z,19.95
2023-02-22T15:19:45.473Z,19.99
2023-02-22T15:22:18.343Z,20.01
2023-02-22T15:24:44.690Z,20.04
2023-02-22T15:27:14.060Z,20.03
2023-02-22T15:29:44.195Z,20.04
2023-02-22T15:32:18.086Z,20.05
2023-02-22T15:34:44.522Z,20.03
2023-02-22T15:37:25.025Z,20.04
2023-02-22T15:39:59.110Z,20.06
2023-02-22T15:42:25.723Z,20.07
2023-02-22T15:44:53.704Z,20.07
2023-02-22T15:47:27.494Z,20.09
2023-02-22T15:50:15.220Z,20.09
2023-02-22T15:53:01.820Z,20.09
2023-02-22T15:55:29.047Z,20.11
2023-02-22T15:57:55.969Z,20.11
2023-02-22T16:00:33.314Z,20.13
2023-02-22T16:02:59.657Z,20.11
2023-02-22T16:05:30.743Z,20.12
2023-02-22T16:07:57.078Z,20.11
2023-02-22T16:10:30.529Z,20.11
2023-02-22T16:13:03.751Z,20.11
2023-02-22T16:15:32.916Z,20.12
2023-02-22T16:18:16.272Z,20.10
2023-02-22T16:20:42.612Z,20.09
2023-02-22T16:23:25.121Z,20.11
2023-02-22T16:26:03.478Z,20.10
2023-02-22T16:29:06.119Z,20.09
2023-02-22T16:31:36.762Z,20.10
2023-02-22T16:34:04.010Z,20.11
2023-02-22T16:36:43.410Z,20.12
2023-02-22T16:39:14.365Z,20.13
2023-02-22T16:41:40.690Z,20.12
2023-02-22T16:44:07.823Z,20.12
2023-02-22T16:46:35.049Z,20.14
2023-02-22T16:49:03.334Z,20.15
2023-02-22T16:51:29.738Z,20.15
2023-02-22T16:53:56.079Z,20.16
2023-02-22T16:56:23.937Z,20.15
2023-02-22T16:58:50.594Z,20.15
2023-02-22T17:01:17.565Z,20.14
2023-02-22T17:03:44.513Z,20.14
2023-02-22T17:06:10.861Z,20.14
2023-02-22T17:08:37.989Z,20.20
2023-02-22T17:11:04.400Z,20.21
2023-02-22T17:13:30.734Z,20.20
2023-02-22T17:15:57.163Z,20.21
2023-02-22T17:18:24.049Z,20.23
2023-02-22T17:20:50.886Z,20.32
2023-02-22T17:23:17.385Z,20.33
2023-02-22T17:25:53.613Z,20.25
2023-02-22T17:28:20.102Z,20.21
2023-02-22T17:30:48.832Z,20.19
2023-02-22T17:33:15.955Z,20.19
2023-02-22T17:35:42.310Z,20.20
2023-02-22T17:38:09.513Z,20.19
2023-02-22T17:40:36.596Z,20.18
2023-02-22T17:43:03.052Z,20.19
2023-02-22T17:45:29.405Z,20.18
2023-02-22T17:47:55.739Z,20.21
2023-02-22T17:50:22.369Z,20.20
2023-02-22T17:52:51.558Z,20.21
2023-02-22T17:55:18.744Z,20.23
2023-02-22T17:57:46.495Z,20.23
2023-02-22T18:00:23.115Z,20.21
2023-02-22T18:02:50.102Z,20.22
2023-02-22T18:05:17.369Z,20.20
2023-02-22T18:07:44.141Z,20.20
2023-02-22T18:10:13.083Z,20.19
2023-02-22T18:12:39.428Z,20.19
2023-02-22T18:15:06.139Z,20.18
2023-02-22T18:17:32.470Z,20.18
2023-02-22T18:19:58.811Z,20.17
2023-02-22T18:22:25.127Z,20.15
2023-02-22T18:24:57.679Z,20.15
2023-02-22T18:27:25.961Z,20.13
2023-02-22T18:29:52.307Z,20.14
2023-02-22T18:32:18.683Z,20.13
2023-02-22T18:34:45.592Z,20.14
2023-02-22T18:37:11.948Z,20.14
2023-02-22T18:39:42.751Z,20.15
2023-02-22T18:42:11.305Z,20.16
2023-02-22T18:44:37.719Z,20.17
2023-02-22T18:47:04.050Z,20.18
2023-02-22T18:49:30.381Z,20.19
2023-02-22T18:51:56.713Z,20.19
2023-02-22T18:54:23.054Z,20.19
2023-02-22T18:56:49.383Z,20.20
2023-02-22T18:59:15.985Z,20.20
2023-02-22T19:01:48.596Z,20.19
2023-02-22T19:04:15.036Z,20.19
2023-02-22T19:06:42.968Z,20.19
2023-02-22T19:09:09.319Z,20.18
2023-02-22T19:11:35.817Z,20.17
2023-02-22T19:14:04.000Z,20.18
2023-02-22T19:16:30.387Z,20.18
2023-02-22T19:18:57.260Z,20.18
2023-02-22T19:21:24.251Z,20.18
2023-02-22T19:23:50.648Z,20.19
2023-02-22T19:26:21.128Z,19.66
2023-02-22T19:28:47.763Z,18.47
2023-02-22T19:31:14.686Z,18.51
2023-02-22T19:33:41.149Z,19.13
2023-02-22T19:36:07.993Z,19.54
2023-02-22T19:38:34.392Z,19.72
2023-02-22T19:41:00.711Z,19.81
2023-02-22T19:43:27.087Z,19.84
2023-02-22T19:45:53.509Z,19.85
2023-02-22T19:48:20.678Z,19.85
2023-02-22T19:50:49.332Z,19.87
2023-02-22T19:53:15.973Z,19.97
2023-02-22T19:55:42.305Z,19.99
2023-02-22T19:58:08.990Z,20.04
2023-02-22T20:00:35.731Z,20.02
2023-02-22T20:03:10.488Z,20.03
2023-02-22T20:05:40.177Z,20.02
2023-02-22T20:08:06.501Z,20.05
2023-02-22T20:10:34.454Z,20.09
2023-02-22T20:13:01.200Z,20.08
2023-02-22T20:15:28.035Z,20.06
2023-02-22T20:17:55.100Z,20.08
2023-02-22T20:20:24.085Z,20.09
2023-02-22T20:22:50.614Z,20.11
2023-02-22T20:25:16.979Z,20.10
2023-02-22T20:27:43.308Z,20.00
2023-02-22T20:30:10.417Z,20.12
2023-02-22T20:32:37.785Z,20.17
2023-02-22T20:35:04.606Z,20.18
2023-02-22T20:37:31.302Z,20.17
2023-02-22T20:39:59.780Z,20.14
2023-02-22T20:42:26.388Z,20.16
2023-02-22T20:44:52.789Z,20.15
2023-02-22T20:47:19.151Z,20.15
2023-02-22T20:49:45.509Z,20.14
2023-02-22T20:52:11.828Z,20.15
2023-02-22T20:54:38.173Z,20.15
2023-02-22T20:57:07.866Z,20.17
2023-02-22T20:59:34.247Z,20.17
2023-02-22T21:02:00.584Z,20.19
2023-02-22T21:04:32.820Z,20.19
2023-02-22T21:07:01.134Z,20.19
2023-02-22T21:09:27.560Z,20.19
2023-02-22T21:11:53.913Z,20.19
2023-02-22T21:14:20.316Z,20.19
2023-02-22T21:16:47.329Z,20.18
2023-02-22T21:19:27.774Z,20.18
2023-02-22T21:21:54.900Z,20.18
2023-02-22T21:24:22.250Z,20.20
2023-02-22T21:26:48.575Z,20.16
2023-02-22T21:29:14.914Z,20.17
2023-02-22T21:31:41.427Z,20.21
2023-02-22T21:34:09.406Z,20.21
2023-02-22T21:36:35.736Z,20.23
2023-02-22T21:39:08.283Z,20.26
2023-02-22T21:41:34.614Z,20.26
2023-02-22T21:44:01.029Z,20.25
2023-02-22T21:46:27.672Z,20.25
2023-02-22T21:48:54.073Z,20.25
2023-02-22T21:51:25.307Z,20.23
2023-02-22T21:53:52.318Z,20.22
2023-02-22T21:56:19.410Z,20.24
2023-02-22T21:58:46.114Z,20.23
2023-02-22T22:01:17.055Z,20.23
2023-02-22T22:03:44.543Z,20.21
2023-02-22T22:06:10.891Z,20.21
2023-02-22T22:08:40.692Z,20.21
2023-02-22T22:11:09.187Z,20.20
2023-02-22T22:13:36.432Z,20.18
2023-02-22T22:16:03.639Z,20.18
2023-02-22T22:18:29.986Z,20.16
2023-02-22T22:20:56.717Z,20.18
2023-02-22T22:23:23.057Z,20.16
2023-02-22T22:25:51.224Z,20.15
2023-02-22T22:28:17.566Z,20.16
2023-02-22T22:30:43.959Z,20.15
2023-02-22T22:33:11.262Z,20.15
2023-02-22T22:35:41.818Z,20.13
2023-02-22T22:38:09.410Z,20.14
2023-02-22T22:40:35.881Z,20.14
2023-02-22T22:43:02.247Z,20.09
2023-02-22T22:45:28.611Z,20.11
2023-02-22T22:47:55.348Z,20.09
2023-02-22T22:50:26.346Z,20.08
2023-02-22T22:52:53.341Z,20.09
2023-02-22T22:55:19.695Z,20.07
2023-02-22T22:57:46.056Z,20.07
2023-02-22T23:00:26.720Z,20.06
2023-02-22T23:02:56.111Z,20.06
2023-02-22T23:05:25.694Z,20.04
2023-02-22T23:07:52.300Z,20.03
2023-02-22T23:10:19.056Z,20.02
2023-02-22T23:12:45.435Z,20.02
2023-02-22T23:15:13.752Z,20.01
2023-02-22T23:17:42.812Z,20.00
2023-02-22T23:20:11.658Z,19.99
2023-02-22T23:22:38.497Z,19.98
2023-02-22T23:25:05.489Z,19.98
2023-02-22T23:27:31.895Z,19.97
2023-02-22T23:29:59.237Z,19.98
2023-02-22T23:32:26.950Z,19.97
2023-02-22T23:34:53.377Z,19.96
2023-02-22T23:37:20.731Z,19.95
2023-02-22T23:39:47.581Z,19.97
2023-02-22T23:42:16.742Z,19.98
2023-02-22T23:44:43.391Z,19.99
2023-02-22T23:47:09.720Z,20.00
2023-02-22T23:49:37.927Z,20.01
2023-02-22T23:52:04.814Z,20.03
2023-02-22T23:54:40.178Z,20.04
2023-02-22T23:57:08.675Z,20.03
2023-02-22T23:59:35.145Z,20.03
